createdAt,value
2024-04-09T00:01:03.265Z,19.43
2024-04-09T00:03:33.656Z,19.45
2024-04-09T00:06:00.643Z,19.35
2024-04-09T00:08:30.208Z,19.39
2024-04-09T00:10:57.705Z,19.38
2024-04-09T00:13:26.514Z,19.43
2024-04-09T00:15:53.127Z,19.40
2024-04-09T00:18:19.872Z,19.44
2024-04-09T00:20:50.098Z,19.35
2024-04-09T00:23:19.608Z,19.32
2024-04-09T00:25:46.652Z,19.39
2024-04-09T00:28:13.699Z,19.41
2024-04-09T00:30:42.850Z,19.40
2024-04-09T00:33:10.265Z,19.38
2024-04-09T00:35:36.906Z,19.26
2024-04-09T00:38:07.730Z,19.26
2024-04-09T00:40:37.507Z,19.32
2024-04-09T00:43:05.275Z,19.39
2024-04-09T00:45:32.626Z,19.38
2024-04-09T00:48:03.503Z,19.38
2024-04-09T00:50:30.891Z,19.36
2024-04-09T00:52:59.931Z,19.37
2024-04-09T00:55:27.244Z,19.34
2024-04-09T00:57:54.756Z,19.20
2024-04-09T01:00:21.711Z,19.30
2024-04-09T01:02:51.406Z,19.22
2024-04-09T01:05:18.303Z,19.28
2024-04-09T01:07:45.720Z,19.26
2024-04-09T01:10:12.722Z,19.23
2024-04-09T01:12:39.443Z,19.26
2024-04-09T01:15:06.337Z,19.21
2024-04-09T01:17:34.593Z,19.18
2024-04-09T01:20:01.320Z,19.19
2024-04-09T01:22:32.321Z,19.18
2024-04-09T01:24:58.852Z,19.14
2024-04-09T01:27:26.783Z,19.18
2024-04-09T01:29:55.845Z,19.18
2024-04-09T01:32:22.521Z,19.16
2024-04-09T01:34:49.313Z,19.07
2024-04-09T01:37:19.032Z,19.08
2024-04-09T01:39:46.983Z,19.04
2024-04-09T01:42:13.676Z,18.96
2024-04-09T01:44:40.312Z,19.02
2024-04-09T01:47:07.006Z,19.04
2024-04-09T01:49:33.641Z,18.93
2024-04-09T01:52:00.314Z,18.85
2024-04-09T01:54:26.977Z,18.93
2024-04-09T01:56:54.024Z,18.89
2024-04-09T01:59:20.526Z,18.86
2024-04-09T02:01:47.033Z,18.83
2024-04-09T02:04:14.170Z,18.67
2024-04-09T02:06:44.018Z,18.80
2024-04-09T02:09:11.639Z,18.84
2024-04-09T02:11:38.743Z,18.75
2024-04-09T02:14:05.893Z,18.80
2024-04-09T02:16:33.162Z,18.78
2024-04-09T02:18:59.967Z,18.71
2024-04-09T02:21:26.762Z,18.74
2024-04-09T02:23:53.649Z,18.78
2024-04-09T02:26:20.175Z,18.73
2024-04-09T02:28:46.706Z,18.74
2024-04-09T02:31:13.734Z,18.73
2024-04-09T02:33:40.425Z,18.65
2024-04-09T02:36:07.544Z,18.66
2024-04-09T02:38:38.768Z,18.60
2024-04-09T02:41:08.895Z,18.62
2024-04-09T02:43:36.374Z,18.61
2024-04-09T02:46:03.083Z,18.66
2024-04-09T02:48:30.077Z,18.60
2024-04-09T02:51:02.506Z,18.65
2024-04-09T02:53:29.084Z,18.66
2024-04-09T02:56:05.796Z,18.63
2024-04-09T02:58:33.623Z,18.63
2024-04-09T03:01:05.952Z,18.53
2024-04-09T03:03:33.312Z,18.58
2024-04-09T03:06:08.862Z,18.55
2024-04-09T03:08:35.934Z,18.54
2024-04-09T03:11:02.954Z,18.54
2024-04-09T03:13:29.476Z,18.51
2024-04-09T03:15:56.951Z,18.45
2024-04-09T03:18:24.336Z,18.51
2024-04-09T03:20:59.027Z,18.51
2024-04-09T03:23:25.608Z,18.47
2024-04-09T03:25:52.128Z,18.39
2024-04-09T03:28:18.630Z,18.48
2024-04-09T03:30:45.214Z,18.44
2024-04-09T03:33:11.887Z,18.41
2024-04-09T03:35:38.529Z,18.41
2024-04-09T03:38:05.079Z,18.35
2024-04-09T03:40:32.386Z,18.41
2024-04-09T03:42:58.891Z,18.41
2024-04-09T03:45:25.509Z,18.45
2024-04-09T03:47:52.140Z,18.36
2024-04-09T03:50:18.681Z,18.36
2024-04-09T03:52:45.254Z,18.37
2024-04-09T03:55:12.549Z,18.27
2024-04-09T03:57:40.141Z,18.20
2024-04-09T04:00:13.054Z,18.15
2024-04-09T04:02:40.531Z,18.24
2024-04-09T04:05:07.293Z,18.21
2024-04-09T04:07:33.902Z,18.22
2024-04-09T04:10:00.408Z,18.20
2024-04-09T04:12:27.009Z,18.12
2024-04-09T04:14:53.581Z,18.01
2024-04-09T04:17:20.191Z,18.01
2024-04-09T04:19:46.878Z,18.04
2024-04-09T04:22:14.453Z,18.00
2024-04-09T04:24:41.105Z,17.92
2024-04-09T04:27:08.295Z,17.90
2024-04-09T04:29:35.228Z,17.92
2024-04-09T04:32:01.728Z,17.88
2024-04-09T04:34:28.359Z,17.88
2024-04-09T04:36:54.948Z,17.88
2024-04-09T04:39:22.103Z,17.99
2024-04-09T04:41:48.705Z,17.98
2024-04-09T04:44:15.360Z,17.97
2024-04-09T04:46:42.343Z,17.93
2024-04-09T04:49:09.400Z,17.91
2024-04-09T04:51:36.121Z,18.02
2024-04-09T04:54:02.767Z,18.02
2024-04-09T04:56:29.328Z,18.13
2024-04-09T04:58:55.859Z,18.26
2024-04-09T05:01:22.802Z,18.22
2024-04-09T05:03:49.862Z,18.21
2024-04-09T05:06:17.092Z,18.12
2024-04-09T05:08:43.646Z,18.04
2024-04-09T05:11:10.672Z,18.11
2024-04-09T05:13:37.325Z,18.10
2024-04-09T05:16:04.180Z,18.09
2024-04-09T05:18:31.459Z,18.05
2024-04-09T05:20:58.080Z,18.06
2024-04-09T05:23:42.493Z,18.11
2024-04-09T05:26:09.331Z,18.10
2024-04-09T05:28:35.865Z,18.17
2024-04-09T05:31:02.409Z,18.10
2024-04-09T05:33:29.011Z,18.20
2024-04-09T05:35:55.898Z,18.24
2024-04-09T05:38:22.418Z,18.23
2024-04-09T05:40:56.237Z,18.25
2024-04-09T05:43:23.235Z,18.23
2024-04-09T05:45:49.954Z,18.33
2024-04-09T05:48:16.804Z,18.36
2024-04-09T05:50:43.392Z,18.40
2024-04-09T05:53:09.945Z,18.42
2024-04-09T05:55:37.113Z,18.44
2024-04-09T05:58:06.236Z,18.44
2024-04-09T06:00:32.957Z,18.48
2024-04-09T06:02:59.696Z,18.51
2024-04-09T06:05:26.307Z,18.49
2024-04-09T06:07:52.829Z,18.54
2024-04-09T06:10:20.703Z,18.56
2024-04-09T06:12:48.393Z,18.55
2024-04-09T06:15:15.256Z,18.60
2024-04-09T06:17:42.067Z,18.69
2024-04-09T06:20:09.313Z,18.75
2024-04-09T06:22:36.235Z,18.77
2024-04-09T06:25:02.888Z,18.73
2024-04-09T06:27:29.511Z,18.75
2024-04-09T06:29:56.570Z,18.88
2024-04-09T06:32:23.166Z,18.94
2024-04-09T06:34:49.751Z,18.89
2024-04-09T06:37:16.356Z,19.02
2024-04-09T06:39:43.201Z,19.04
2024-04-09T06:42:09.871Z,19.06
2024-04-09T06:44:36.461Z,19.01
2024-04-09T06:47:03.424Z,19.08
2024-04-09T06:49:30.150Z,19.07
2024-04-09T06:51:56.851Z,19.17
2024-04-09T06:54:23.522Z,19.20
2024-04-09T06:56:50.391Z,19.27
2024-04-09T06:59:17.149Z,19.39
2024-04-09T07:01:43.755Z,19.37
2024-04-09T07:04:10.819Z,19.50
2024-04-09T07:06:39.265Z,19.55
2024-04-09T07:09:07.000Z,19.64
2024-04-09T07:11:33.555Z,19.75
2024-04-09T07:14:00.165Z,19.79
2024-04-09T07:16:26.740Z,19.88
2024-04-09T07:18:53.387Z,19.89
2024-04-09T07:21:21.235Z,20.00
2024-04-09T07:23:48.693Z,20.08
2024-04-09T07:26:15.611Z,20.23
2024-04-09T07:28:42.146Z,20.18
2024-04-09T07:31:09.609Z,20.28
2024-04-09T07:33:36.470Z,20.34
2024-04-09T07:36:04.663Z,20.38
2024-04-09T07:38:31.390Z,20.51
2024-04-09T07:40:57.908Z,20.65
2024-04-09T07:43:24.410Z,20.69
2024-04-09T07:45:54.282Z,20.67
2024-04-09T07:48:21.552Z,20.82
2024-04-09T07:50:48.205Z,21.01
2024-04-09T07:53:15.847Z,21.13
2024-04-09T07:55:42.573Z,21.21
2024-04-09T07:58:09.825Z,21.27
2024-04-09T08:00:36.710Z,21.05
2024-04-09T08:03:03.834Z,21.15
2024-04-09T08:05:30.796Z,21.18
2024-04-09T08:07:57.688Z,21.11
2024-04-09T08:10:24.278Z,21.26
2024-04-09T08:12:58.891Z,21.27
2024-04-09T08:15:25.872Z,21.24
2024-04-09T08:17:52.491Z,21.34
2024-04-09T08:20:19.935Z,21.55
2024-04-09T08:22:50.591Z,21.60
2024-04-09T08:25:20.830Z,21.71
2024-04-09T08:27:47.775Z,21.81
2024-04-09T08:30:16.014Z,21.88
2024-04-09T08:32:43.145Z,22.05
2024-04-09T08:35:09.836Z,22.14
2024-04-09T08:37:36.502Z,22.14
2024-04-09T08:40:05.129Z,22.21
2024-04-09T08:42:32.177Z,22.30
2024-04-09T08:45:00.187Z,22.50
2024-04-09T08:47:27.255Z,22.49
2024-04-09T08:50:00.649Z,22.72
2024-04-09T08:52:30.565Z,22.94
2024-04-09T08:54:57.224Z,22.87
2024-04-09T08:57:33.217Z,22.94
2024-04-09T09:00:01.678Z,23.20
2024-04-09T09:02:28.778Z,23.26
2024-04-09T09:04:55.704Z,23.36
2024-04-09T09:07:25.920Z,23.30
2024-04-09T09:10:00.891Z,22.98
2024-04-09T09:12:27.615Z,23.26
2024-04-09T09:15:02.058Z,22.82
2024-04-09T09:17:32.629Z,23.30
2024-04-09T09:20:04.623Z,23.53
2024-04-09T09:22:36.872Z,23.73
2024-04-09T09:25:08.349Z,23.86
2024-04-09T09:27:36.916Z,24.01
2024-04-09T09:30:03.842Z,24.14
2024-04-09T09:32:31.384Z,24.39
2024-04-09T09:35:01.754Z,24.04
2024-04-09T09:37:32.212Z,24.28
2024-04-09T09:40:00.467Z,24.29
2024-04-09T09:42:27.790Z,24.63
2024-04-09T09:44:55.606Z,24.64
2024-04-09T09:47:23.700Z,24.76
2024-04-09T09:49:59.447Z,24.93
2024-04-09T09:52:29.526Z,24.92
2024-04-09T09:54:59.177Z,24.91
2024-04-09T09:57:29.559Z,24.80
2024-04-09T10:00:00.128Z,25.10
2024-04-09T10:02:30.966Z,25.33
2024-04-09T10:04:57.871Z,25.54
2024-04-09T10:07:25.013Z,25.69
2024-04-09T10:09:54.177Z,25.53
2024-04-09T10:12:22.392Z,25.30
2024-04-09T10:15:04.818Z,25.60
2024-04-09T10:17:53.053Z,26.02
2024-04-09T10:20:27.098Z,26.19
2024-04-09T10:22:55.338Z,26.35
2024-04-09T10:25:23.862Z,26.44
2024-04-09T10:28:08.310Z,25.92
2024-04-09T10:30:38.884Z,26.03
2024-04-09T10:33:07.101Z,26.00
2024-04-09T10:54:29.560Z,27.08
2024-04-09T11:53:49.958Z,31.03
2024-04-09T12:01:31.860Z,31.67
2024-04-09T12:28:38.082Z,28.15
2024-04-09T12:46:16.657Z,27.21
2024-04-09T12:53:27.513Z,27.86
2024-04-09T13:00:06.722Z,27.55
2024-04-09T13:06:15.183Z,26.33
2024-04-09T13:08:41.984Z,26.92
2024-04-09T13:11:08.672Z,26.91
2024-04-09T13:13:36.850Z,26.59
2024-04-09T13:16:50.393Z,26.98
2024-04-09T13:19:20.469Z,26.79
2024-04-09T13:21:47.859Z,27.26
2024-04-09T13:24:15.202Z,26.62
2024-04-09T13:26:41.876Z,26.19
2024-04-09T13:29:08.692Z,26.25
2024-04-09T13:31:35.383Z,26.30
2024-04-09T13:34:04.049Z,26.11
2024-04-09T13:36:30.908Z,25.92
2024-04-09T13:38:57.641Z,25.88
2024-04-09T13:41:24.297Z,26.14
2024-04-09T13:43:50.959Z,26.13
2024-04-09T13:46:19.202Z,25.85
2024-04-09T13:48:46.289Z,26.00
2024-04-09T13:51:13.093Z,25.98
2024-04-09T13:53:39.697Z,26.11
2024-04-09T13:56:06.538Z,25.76
2024-04-09T13:58:33.198Z,25.78
2024-04-09T14:00:59.805Z,25.90
2024-04-09T14:03:28.009Z,26.05
2024-04-09T14:05:55.144Z,25.53
2024-04-09T14:08:22.098Z,25.50
2024-04-09T14:10:49.004Z,25.11
2024-04-09T14:13:15.586Z,26.00
2024-04-09T14:15:42.215Z,25.30
2024-04-09T14:18:10.012Z,25.67
2024-04-09T14:20:36.731Z,25.71
2024-04-09T14:23:03.780Z,25.80
2024-04-09T14:25:31.418Z,25.50
2024-04-09T14:27:58.000Z,25.50
2024-04-09T14:30:25.527Z,25.98
2024-04-09T14:32:52.333Z,25.87
2024-04-09T14:35:19.137Z,26.84
2024-04-09T14:37:45.859Z,26.06
2024-04-09T14:40:12.582Z,26.09
2024-04-09T14:42:39.471Z,26.05
2024-04-09T14:45:06.188Z,25.76
2024-04-09T14:47:33.097Z,25.90
2024-04-09T14:50:00.048Z,25.85
2024-04-09T14:52:26.664Z,26.01
2024-04-09T14:54:55.923Z,25.95
2024-04-09T14:57:23.009Z,26.48
2024-04-09T14:59:49.589Z,26.73
2024-04-09T15:02:16.201Z,26.54
2024-04-09T15:04:48.049Z,26.66
2024-04-09T15:07:14.605Z,27.15
2024-04-09T15:09:43.148Z,26.44
2024-04-09T15:12:09.799Z,26.76
2024-04-09T15:14:36.490Z,26.65
2024-04-09T15:17:04.752Z,26.52
2024-04-09T15:19:31.498Z,25.12
2024-04-09T15:21:58.064Z,24.36
2024-04-09T15:24:24.574Z,24.20
2024-04-09T15:26:52.873Z,23.70
2024-04-09T15:29:19.453Z,23.69
2024-04-09T15:31:46.684Z,23.79
2024-04-09T15:34:13.335Z,23.94
2024-04-09T15:36:40.366Z,23.32
2024-04-09T15:39:10.444Z,23.27
2024-04-09T15:41:37.022Z,23.07
2024-04-09T15:44:03.660Z,23.21
2024-04-09T15:46:30.209Z,23.52
2024-04-09T15:48:56.814Z,23.59
2024-04-09T15:51:23.406Z,23.36
2024-04-09T15:53:49.900Z,23.46
2024-04-09T15:56:18.109Z,23.56
2024-04-09T15:58:44.723Z,23.05
2024-04-09T16:01:12.144Z,23.04
2024-04-09T16:03:42.771Z,23.18
2024-04-09T16:06:09.875Z,23.04
2024-04-09T16:08:36.445Z,22.88
2024-04-09T16:11:05.160Z,22.94
2024-04-09T16:13:34.181Z,22.67
2024-04-09T16:16:08.720Z,22.23
2024-04-09T16:18:35.691Z,22.29
2024-04-09T16:21:03.310Z,22.27
2024-04-09T16:23:30.375Z,22.24
2024-04-09T16:26:01.562Z,22.00
2024-04-09T16:28:28.143Z,21.92
2024-04-09T16:30:54.663Z,21.62
2024-04-09T16:33:21.266Z,21.41
2024-04-09T16:35:47.920Z,21.50
2024-04-09T16:38:14.543Z,21.58
2024-04-09T16:40:41.843Z,21.59
2024-04-09T16:43:08.527Z,21.24
2024-04-09T16:45:35.539Z,21.12
2024-04-09T16:48:02.389Z,21.18
2024-04-09T16:50:29.108Z,21.07
2024-04-09T16:52:55.679Z,20.98
2024-04-09T16:55:22.286Z,20.99
2024-04-09T16:57:48.828Z,20.69
2024-04-09T17:00:15.989Z,20.54
2024-04-09T17:02:43.590Z,19.75
2024-04-09T17:05:12.184Z,18.94
2024-04-09T17:07:40.265Z,18.86
2024-04-09T17:10:14.208Z,18.93
2024-04-09T17:12:43.493Z,18.66
2024-04-09T17:15:10.112Z,18.48
2024-04-09T17:17:37.595Z,18.51
2024-04-09T17:20:09.221Z,18.36
2024-04-09T17:22:35.927Z,18.20
2024-04-09T17:25:04.806Z,17.88
2024-04-09T17:27:33.697Z,17.70
2024-04-09T17:30:00.942Z,17.56
2024-04-09T17:32:32.197Z,17.44
2024-04-09T17:35:00.807Z,17.24
2024-04-09T17:37:27.779Z,17.08
2024-04-09T17:39:54.319Z,16.92
2024-04-09T17:42:20.872Z,16.93
2024-04-09T17:44:47.682Z,16.90
2024-04-09T17:47:14.490Z,16.94
2024-04-09T17:49:41.610Z,16.82
2024-04-09T17:52:08.534Z,16.59
2024-04-09T17:54:35.363Z,16.50
2024-04-09T17:57:02.304Z,16.63
2024-04-09T17:59:29.247Z,16.47
2024-04-09T18:01:56.187Z,16.49
2024-04-09T18:04:24.570Z,16.42
2024-04-09T18:06:51.201Z,16.35
2024-04-09T18:09:18.125Z,16.23
2024-04-09T18:11:45.403Z,16.21
2024-04-09T18:14:12.118Z,16.15
2024-04-09T18:16:38.867Z,16.14
2024-04-09T18:19:06.873Z,16.10
2024-04-09T18:21:33.623Z,16.03
2024-04-09T18:24:01.188Z,15.75
2024-04-09T18:26:27.878Z,15.64
2024-04-09T18:28:55.365Z,15.60
2024-04-09T18:31:22.006Z,15.44
2024-04-09T18:33:48.794Z,15.53
2024-04-09T18:36:15.444Z,15.49
2024-04-09T18:38:42.013Z,15.26
2024-04-09T18:41:10.020Z,15.22
2024-04-09T18:43:38.180Z,15.34
2024-04-09T18:46:04.766Z,15.30
2024-04-09T18:48:32.743Z,15.26
2024-04-09T18:50:59.579Z,15.34
2024-04-09T18:53:26.412Z,15.03
2024-04-09T18:55:52.996Z,14.82
2024-04-09T18:58:19.642Z,14.67
2024-04-09T19:00:46.578Z,14.71
2024-04-09T19:03:13.512Z,14.63
2024-04-09T19:05:42.468Z,14.54
2024-04-09T19:08:09.782Z,14.53
2024-04-09T19:10:41.788Z,14.56
2024-04-09T19:13:08.503Z,14.35
2024-04-09T19:15:35.905Z,14.28
2024-04-09T19:18:03.081Z,14.17
2024-04-09T19:20:29.782Z,13.93
2024-04-09T19:22:58.028Z,13.95
2024-04-09T19:25:25.079Z,13.87
2024-04-09T19:27:51.788Z,13.87
2024-04-09T19:30:19.137Z,13.82
2024-04-09T19:32:45.963Z,13.81
2024-04-09T19:35:12.646Z,13.73
2024-04-09T19:37:39.263Z,13.60
2024-04-09T19:40:09.860Z,13.48
2024-04-09T19:42:36.536Z,13.32
2024-04-09T19:45:04.269Z,13.28
2024-04-09T19:47:31.485Z,13.35
2024-04-09T19:49:59.567Z,13.17
2024-04-09T19:52:27.237Z,13.17
2024-04-09T19:54:53.831Z,13.06
2024-04-09T19:57:20.410Z,12.88
2024-04-09T19:59:46.995Z,12.70
2024-04-09T20:02:13.593Z,12.70
2024-04-09T20:04:40.292Z,12.66
2024-04-09T20:07:07.093Z,12.59
2024-04-09T20:09:33.852Z,12.51
2024-04-09T20:12:01.079Z,12.57
2024-04-09T20:14:28.357Z,12.41
2024-04-09T20:16:55.134Z,12.40
2024-04-09T20:19:21.921Z,12.34
2024-04-09T20:21:49.829Z,12.20
2024-04-09T20:24:16.436Z,12.12
2024-04-09T20:26:42.990Z,12.12
2024-04-09T20:29:10.935Z,12.02
2024-04-09T20:31:42.445Z,12.08
2024-04-09T20:34:09.590Z,11.80
2024-04-09T20:36:36.383Z,11.49
2024-04-09T20:39:06.342Z,11.35
2024-04-09T20:41:34.434Z,11.31
2024-04-09T20:44:02.677Z,11.29
2024-04-09T20:46:29.832Z,11.37
2024-04-09T20:48:56.657Z,11.35
2024-04-09T20:51:25.065Z,11.39
2024-04-09T20:53:51.945Z,11.45
2024-04-09T20:56:18.640Z,11.33
2024-04-09T20:58:45.291Z,11.20
2024-04-09T21:01:11.925Z,11.07
2024-04-09T21:03:39.558Z,11.00
2024-04-09T21:06:06.330Z,10.88
2024-04-09T21:08:33.294Z,10.77
2024-04-09T21:11:00.477Z,10.71
2024-04-09T21:13:27.252Z,10.53
2024-04-09T21:15:54.221Z,10.53
2024-04-09T21:18:21.008Z,10.19
2024-04-09T21:20:47.777Z,9.82
2024-04-09T21:23:14.379Z,9.61
2024-04-09T21:25:43.224Z,9.59
2024-04-09T21:28:09.760Z,9.46
2024-04-09T21:30:36.506Z,9.43
2024-04-09T21:33:04.623Z,9.51
2024-04-09T21:35:32.788Z,9.55
2024-04-09T21:37:59.554Z,9.43
2024-04-09T21:40:26.265Z,9.46
2024-04-09T21:42:52.922Z,9.54
2024-04-09T21:45:19.599Z,9.52
2024-04-09T21:47:46.467Z,9.44
2024-04-09T21:50:13.543Z,9.48
2024-04-09T21:52:40.122Z,9.52
2024-04-09T21:55:07.185Z,9.50
2024-04-09T21:57:33.774Z,9.48
2024-04-09T22:00:00.446Z,9.57
2024-04-09T22:02:27.543Z,9.45
2024-04-09T22:04:54.362Z,9.41
2024-04-09T22:07:21.039Z,9.19
2024-04-09T22:09:50.487Z,9.21
2024-04-09T22:12:17.359Z,9.22
2024-04-09T22:14:44.043Z,9.22
2024-04-09T22:17:10.681Z,9.18
2024-04-09T22:19:37.246Z,9.28
2024-04-09T22:22:03.952Z,9.30
2024-04-09T22:24:30.871Z,9.32
2024-04-09T22:26:57.627Z,9.33
2024-04-09T22:29:24.223Z,9.26
2024-04-09T22:31:50.837Z,9.30
2024-04-09T22:34:17.533Z,9.29
2024-04-09T22:36:44.133Z,9.28
2024-04-09T22:39:13.812Z,9.34
2024-04-09T22:41:40.317Z,9.28
2024-04-09T22:44:07.158Z,9.25
2024-04-09T22:46:33.702Z,9.20
2024-04-09T22:49:00.468Z,9.18
2024-04-09T22:51:27.105Z,9.18
2024-04-09T22:53:54.249Z,9.36
2024-04-09T22:56:20.867Z,9.24
2024-04-09T22:58:47.568Z,9.30
2024-04-09T23:01:14.855Z,9.24
2024-04-09T23:03:41.770Z,9.25
2024-04-09T23:06:09.759Z,9.16
2024-04-09T23:08:37.101Z,9.28
2024-04-09T23:11:04.892Z,9.19
2024-04-09T23:13:31.916Z,9.22
2024-04-09T23:16:03.053Z,9.25
2024-04-09T23:18:29.959Z,9.13
2024-04-09T23:20:58.144Z,9.18
2024-04-09T23:23:25.924Z,9.27
2024-04-09T23:25:53.015Z,9.18
2024-04-09T23:28:19.976Z,9.26
2024-04-09T23:30:46.507Z,9.22
2024-04-09T23:33:13.308Z,9.22
2024-04-09T23:35:40.591Z,9.22
2024-04-09T23:38:08.020Z,9.33
2024-04-09T23:40:41.504Z,9.34
2024-04-09T23:43:10.817Z,9.19
2024-04-09T23:45:37.935Z,9.32
2024-04-09T23:48:05.621Z,9.33
2024-04-09T23:50:32.629Z,9.41
2024-04-09T23:52:59.258Z,9.48
2024-04-09T23:55:25.845Z,9.47
2024-04-09T23:57:52.358Z,9.50
